aviador You're here:

PASA Decoded Metar

SAVOONGA in AK, USA
Report Time2018-01-18 09:56:00
UTC Time2018-01-18 10:03:18
Flight Rules mvfr MVFR
Wind340° at 15 kt
W.Decomp.*RWY 05: 2.6 kt HW 14.8 kt LCW
W.Rank340° ranks 23
Current wind is above 340° avg. (8.5)
Visibility9999 m
Phenomena:Light Snow
Clouds:Broken 011 Hf
Overcast 016 Hf
Expected CloudBase > 1,200 ft AGL from Temp-Dew spread
Ceiling1,100 ft
Temp-13°C (ISA -28)
Dew Point-16°C (78% RH)
AAT-21.8°C
QNH1012 hPa
Density Alt-3,402 ft
Elevation52 ft
Report Wrong Elevation
Raw Report
PASA 180956Z AUTO 34015KT 9SM -SN BKN011 OVC016 M13/M16 A2989 RMK
AO2 SNE18B41 SLP125 P0000 T11331156 FZRANO $=

Extra information for PASA:More info

Metar Taf Metar & Taf Last 4 Metars F.Rules Stats Wind Profile Meteogram Temp Stats Airport Information Weather charts Add Link Nearby VenuesMetar ALERT Operation Metar Decoded Social comments

AIRNAV info for PASA